[ ตารางข้อมูล ] [ Min-Max ] [ วันนี้4 ] [ วันนี้2 ] [ เทียบ3วัน A ] [ เทียบ4วัน B ]   

วันนี้2   [ ◀ ช่วงเก่ากว่า ] [ ช่วงที่ 334 ] [ ช่วงใหม่กว่า ▶ ] [ ล่าสุด ]    [ 3 ชั่วโมง ] [ 6 ชั่วโมง ] [ 12 ชั่วโมง ] [ 24 ชั่วโมง ]   วันนี้2

อุณภูมิตู้ Knockdown4529  ราย 3 ชั่วโมง  ที่วัดได้ ในช่วงวันเวลา 29/03/2026 (21:20) ถึง 30/03/2026 (00:20) 
ความชื้นในตู้ Knockdown4529  ราย 3 ชั่วโมง  ที่วัดได้ ในช่วงวันเวลา 29/03/2026 (21:20) ถึง 30/03/2026 (00:20) 

 
DS18B20SHTC3 
IDDate d/m/Y & Timedata1
สูง
data2
ต่ำ
data3
นอก
temp
pcb
hum
pcb
Time
 7038  30/03/2026 00:20:23  28.8  28.8  27.9  28.5  72.3  00:20 
 7037  30/03/2026 00:15:41  28.8  28.8  28.0  28.7  72.3  00:15 
 7036  30/03/2026 00:10:59  28.8  28.8  28.0  28.6  72.3  00:10 
 7035  30/03/2026 00:06:17  28.8  28.8  28.0  28.7  72.2  00:06 
 7034  30/03/2026 00:01:35  28.8  28.8  28.0  28.7  72.3  00:01 
 7033  29/03/2026 23:56:52  28.8  28.8  28.0  28.8  72.2  23:56 
 7032  29/03/2026 23:52:11  28.8  28.8  28.0  28.7  72.2  23:52 
 7031  29/03/2026 23:47:29  28.8  28.8  28.1  28.7  72.3  23:47 
 7030  29/03/2026 23:42:47  28.8  28.9  28.2  28.8  72.4  23:42 
 7029  29/03/2026 23:38:05  28.8  28.9  28.0  28.7  72.3  23:38 
 7028  29/03/2026 23:33:23  28.8  28.9  28.0  28.7  72.3  23:33 
 7027  29/03/2026 23:28:40  28.8  28.9  28.0  28.7  72.3  23:28 
 7026  29/03/2026 23:23:58  28.8  28.9  28.1  28.8  72.2  23:23 
 7025  29/03/2026 23:19:16  28.8  28.9  28.1  28.7  72.3  23:19 
 7024  29/03/2026 23:14:35  28.9  28.9  28.1  28.7  72.2  23:14 
 7023  29/03/2026 23:09:53  28.9  28.9  28.0  28.8  72.3  23:09 
 7022  29/03/2026 23:05:11  28.9  28.9  28.1  28.8  72.2  23:05 
 7021  29/03/2026 23:00:28  28.9  28.9  28.1  28.8  72.3  23:00 
 7020  29/03/2026 22:55:46  28.9  29.0  28.2  29.1  72.3  22:55 
 7019  29/03/2026 22:51:05  28.9  29.0  28.2  28.9  72.3  22:51 
 7018  29/03/2026 22:46:23  28.9  29.0  28.2  28.9  72.1  22:46 
 7017  29/03/2026 22:41:41  29.0  29.0  28.3  28.9  72.1  22:41 
 7016  29/03/2026 22:36:59  29.0  29.0  28.2  28.9  72.2  22:36 
 7015  29/03/2026 22:32:17  29.1  29.1  28.3  28.8  72.1  22:32 

Data every 5 minute.


ใช้เวลาประมวลผล 0.00284 วินาที